Time;durP1;ratioP1;P1;durP2;ratioP2;P2;SDS_P1;SDS_P2;PMS_P1;PMS_P2;Temp;Humidity;BMP_temperature;BMP_pressure;BME280_temperature;BME280_humidity;BME280_pressure;Samples;Min_cycle;Max_cycle;Signal;HPM_P1;HPM_P2
2021/12/24 00:01:47;;;;;;;;;;;8.20;73.30;;;;;;5013647;28;19909;-56
2021/12/24 00:04:12;;;;;;;;;;;8.20;73.40;;;;;;5013678;28;20377;-59
2021/12/24 00:06:38;;;;;;;;;;;8.20;74.20;;;;;;5013548;28;19913;-57
2021/12/24 00:09:04;;;;;;;;;;;8.20;74.80;;;;;;5013567;28;19963;-58
2021/12/24 00:11:30;;;;;;;;;;;8.10;74.30;;;;;;5013015;28;19954;-56
2021/12/24 00:13:56;;;;;;;;;;;8.10;74.10;;;;;;5013603;28;19916;-57
2021/12/24 00:16:26;;;;;;;;;;;8.20;75.50;;;;;;5013530;28;19909;-57
2021/12/24 00:37:19;;;;;;;;;;;8.00;76.50;;;;;;5013367;28;20280;-58
2021/12/24 00:40:13;;;;;;;;;;;8.00;76.30;;;;;;5013193;28;20354;-58
2021/12/24 00:42:34;;;;;;;;;;;8.10;75.90;;;;;;5012432;28;19981;-58
2021/12/24 00:44:59;;;;;;;;;;;8.10;75.90;;;;;;5015340;28;20366;-58
2021/12/24 00:47:25;;;;;;;;;;;8.10;76.00;;;;;;5017093;28;19910;-58
2021/12/24 00:49:51;;;;;;;;;;;8.20;75.90;;;;;;5017009;28;19949;-58
2021/12/24 00:52:43;;;;;;;;;;;8.30;75.80;;;;;;5016879;28;19917;-57
2021/12/24 00:55:06;;;;;;;;;;;8.40;75.30;;;;;;5016806;28;20385;-57
2021/12/24 00:57:37;;;;;;;;;;;8.50;74.90;;;;;;5016672;28;19914;-58
2021/12/24 01:00:04;;;;;;;;;;;8.40;75.30;;;;;;5016690;28;19909;-62
2021/12/24 01:02:30;;;;;;;;;;;8.30;76.20;;;;;;5016790;28;19914;-57
2021/12/24 01:04:55;;;;;;;;;;;8.30;76.70;;;;;;5016687;28;19917;-57
2021/12/24 01:07:21;;;;;;;;;;;8.30;76.40;;;;;;5016583;28;19909;-60
2021/12/24 01:09:46;;;;;;;;;;;8.00;76.90;;;;;;5016518;28;19909;-58
2021/12/24 01:12:12;;;;;;;;;;;8.10;77.30;;;;;;5016758;28;20361;-61
2021/12/24 01:14:37;;;;;;;;;;;8.00;77.60;;;;;;5016547;28;20051;-58
2021/12/24 01:19:47;;;;;;;;;;;8.10;77.90;;;;;;5016396;28;19910;-58
2021/12/24 01:25:46;;;;;;;;;;;8.20;77.80;;;;;;5016171;28;19963;-58
2021/12/24 01:28:04;;;;;;;;;;;8.20;77.80;;;;;;5008880;28;20021;-59
2021/12/24 01:38:27;;;;;;;;;;;8.20;78.80;;;;;;5016273;28;19932;-59
2021/12/24 01:43:21;;;;;;;;;;;8.10;79.10;;;;;;5016343;28;20353;-56
2021/12/24 01:45:47;;;;;;;;;;;8.20;78.80;;;;;;4998545;28;19910;-59
2021/12/24 01:48:13;;;;;;;;;;;8.20;78.90;;;;;;5015846;28;19925;-59
2021/12/24 01:50:42;;;;;;;;;;;8.20;79.30;;;;;;5015847;28;19914;-58
2021/12/24 01:53:07;;;;;;;;;;;8.20;79.50;;;;;;5015760;28;20281;-59
2021/12/24 01:55:34;;;;;;;;;;;8.10;79.60;;;;;;5014602;28;19909;-58
2021/12/24 01:57:59;;;;;;;;;;;8.10;79.80;;;;;;5015705;28;19918;-58
2021/12/24 02:00:27;;;;;;;;;;;8.10;80.00;;;;;;5015646;28;20277;-59
2021/12/24 02:02:53;;;;;;;;;;;8.10;80.40;;;;;;5015759;28;19909;-58
2021/12/24 02:05:18;;;;;;;;;;;7.80;80.80;;;;;;5015756;28;20409;-61
2021/12/24 02:07:44;;;;;;;;;;;7.80;81.30;;;;;;5015576;28;19955;-59
2021/12/24 02:10:10;;;;;;;;;;;7.90;81.50;;;;;;5015333;28;20277;-59
2021/12/24 02:12:36;;;;;;;;;;;8.00;81.20;;;;;;5015381;28;19915;-57
2021/12/24 02:15:04;;;;;;;;;;;8.00;81.10;;;;;;5015497;28;19996;-59
2021/12/24 02:28:28;;;;;;;;;;;8.10;81.00;;;;;;5015199;28;19917;-59
2021/12/24 02:30:54;;;;;;;;;;;8.00;81.20;;;;;;5015045;28;19909;-63
2021/12/24 02:33:19;;;;;;;;;;;8.00;81.00;;;;;;5015108;28;20423;-57
2021/12/24 02:35:45;;;;;;;;;;;8.10;80.70;;;;;;5015171;28;19913;-58
2021/12/24 02:38:10;;;;;;;;;;;8.10;80.70;;;;;;5014935;28;20012;-59
2021/12/24 02:40:37;;;;;;;;;;;8.10;80.60;;;;;;5015084;28;19910;-58
2021/12/24 02:43:03;;;;;;;;;;;8.00;81.30;;;;;;5014854;28;20066;-61
2021/12/24 02:45:30;;;;;;;;;;;8.10;81.10;;;;;;5014802;28;19920;-63
2021/12/24 02:55:32;;;;;;;;;;;8.10;81.10;;;;;;5014683;28;19920;-58
2021/12/24 02:57:59;;;;;;;;;;;8.10;81.20;;;;;;5014604;28;20365;-58
2021/12/24 03:00:27;;;;;;;;;;;8.10;81.30;;;;;;5014362;28;20341;-59
2021/12/24 03:02:53;;;;;;;;;;;8.10;81.40;;;;;;5014748;28;19909;-59
2021/12/24 03:05:20;;;;;;;;;;;8.10;81.10;;;;;;5014495;28;19909;-57
2021/12/24 03:07:46;;;;;;;;;;;8.10;81.00;;;;;;5014032;28;20374;-60
2021/12/24 03:10:15;;;;;;;;;;;8.10;81.10;;;;;;5014418;28;19916;-66
2021/12/24 03:12:43;;;;;;;;;;;8.10;81.30;;;;;;5014124;28;20009;-58
2021/12/24 03:15:10;;;;;;;;;;;8.10;81.20;;;;;;5014457;28;19910;-58
2021/12/24 03:17:35;;;;;;;;;;;8.10;81.30;;;;;;5014301;28;20362;-59
2021/12/24 03:20:07;;;;;;;;;;;8.10;81.30;;;;;;5014169;28;19920;-59
2021/12/24 03:25:10;;;;;;;;;;;8.10;81.20;;;;;;5013919;28;19921;-59
2021/12/24 03:27:36;;;;;;;;;;;8.20;81.00;;;;;;5014214;28;20285;-59
2021/12/24 03:30:02;;;;;;;;;;;8.20;80.80;;;;;;5013810;28;19909;-58
2021/12/24 03:32:28;;;;;;;;;;;8.30;80.50;;;;;;5014216;28;19945;-58
2021/12/24 03:34:54;;;;;;;;;;;8.30;80.90;;;;;;5013862;28;20365;-61
2021/12/24 03:37:19;;;;;;;;;;;8.20;81.00;;;;;;5014047;28;19918;-59
2021/12/24 03:39:45;;;;;;;;;;;8.20;81.10;;;;;;5013786;28;19910;-61
2021/12/24 03:42:10;;;;;;;;;;;8.30;80.80;;;;;;5013831;28;19906;-60
2021/12/24 03:44:42;;;;;;;;;;;8.30;80.90;;;;;;5014142;28;20332;-57
2021/12/24 03:47:12;;;;;;;;;;;8.30;81.10;;;;;;5013740;28;19909;-60
2021/12/24 03:49:51;;;;;;;;;;;8.20;81.40;;;;;;5013786;28;20029;-60
2021/12/24 03:54:56;;;;;;;;;;;8.10;82.10;;;;;;5013758;28;20064;-60
2021/12/24 03:57:42;;;;;;;;;;;7.90;82.50;;;;;;5013443;28;19920;-60
2021/12/24 04:00:11;;;;;;;;;;;7.90;83.40;;;;;;5013063;28;19913;-61
2021/12/24 04:02:36;;;;;;;;;;;8.00;83.00;;;;;;5013452;28;20368;-59
2021/12/24 04:05:02;;;;;;;;;;;7.90;83.10;;;;;;5013593;28;19960;-60
2021/12/24 04:07:28;;;;;;;;;;;8.00;82.90;;;;;;5013387;28;19910;-62
2021/12/24 04:10:02;;;;;;;;;;;7.90;83.50;;;;;;5013527;28;19909;-60
2021/12/24 04:12:28;;;;;;;;;;;8.00;83.30;;;;;;5013566;28;20386;-58
2021/12/24 04:14:54;;;;;;;;;;;7.90;83.60;;;;;;5013267;28;20015;-58
2021/12/24 04:17:20;;;;;;;;;;;7.80;84.20;;;;;;5013358;28;19918;-59
2021/12/24 04:25:14;;;;;;;;;;;7.80;84.70;;;;;;5017218;28;19984;-58
2021/12/24 04:27:39;;;;;;;;;;;7.80;84.60;;;;;;5017443;28;19917;-62
2021/12/24 04:30:12;;;;;;;;;;;7.80;84.80;;;;;;5017272;28;20276;-64
2021/12/24 04:33:02;;;;;;;;;;;7.90;84.40;;;;;;5017273;28;19916;-56
2021/12/24 04:51:42;;;;;;;;;;;8.20;82.80;;;;;;5017290;28;19963;-58
2021/12/24 05:04:54;;;;;;;;;;;8.30;82.70;;;;;;5017022;28;19960;-56
2021/12/24 05:09:54;;;;;;;;;;;8.30;82.70;;;;;;5016533;28;19909;-58
2021/12/24 05:12:20;;;;;;;;;;;8.30;82.40;;;;;;5016718;28;20250;-58
2021/12/24 05:14:45;;;;;;;;;;;8.30;82.30;;;;;;5016456;28;20000;-59
2021/12/24 05:17:28;;;;;;;;;;;8.30;82.10;;;;;;5016553;28;20020;-58
2021/12/24 05:22:37;;;;;;;;;;;8.30;82.30;;;;;;5016545;28;19916;-58
2021/12/24 05:25:03;;;;;;;;;;;8.30;82.20;;;;;;5016107;28;20293;-58
2021/12/24 05:27:29;;;;;;;;;;;8.30;82.20;;;;;;5016460;28;20336;-58
2021/12/24 05:29:54;;;;;;;;;;;8.30;82.30;;;;;;5016299;28;20426;-58
2021/12/24 05:32:20;;;;;;;;;;;8.30;83.10;;;;;;5016186;28;19909;-58
2021/12/24 05:34:46;;;;;;;;;;;8.30;82.50;;;;;;5016302;28;19910;-63
2021/12/24 05:37:11;;;;;;;;;;;8.30;82.40;;;;;;5015834;28;20285;-58
2021/12/24 05:39:37;;;;;;;;;;;8.40;82.30;;;;;;5016296;28;19909;-59
2021/12/24 05:42:03;;;;;;;;;;;8.40;82.10;;;;;;5016007;28;19932;-58
2021/12/24 05:44:29;;;;;;;;;;;8.40;81.90;;;;;;5015908;28;19913;-61
2021/12/24 05:46:55;;;;;;;;;;;8.50;81.60;;;;;;5015857;28;19909;-58
2021/12/24 05:49:20;;;;;;;;;;;8.50;81.50;;;;;;5015894;28;19936;-60
2021/12/24 05:51:46;;;;;;;;;;;8.50;81.70;;;;;;5015896;28;19964;-59
2021/12/24 05:54:12;;;;;;;;;;;8.40;81.90;;;;;;5015875;28;19910;-60
2021/12/24 05:56:37;;;;;;;;;;;8.40;82.00;;;;;;5015745;28;19960;-67
2021/12/24 05:59:04;;;;;;;;;;;8.40;82.40;;;;;;5015773;28;20247;-67
2021/12/24 06:01:29;;;;;;;;;;;8.40;82.40;;;;;;5015786;28;19960;-64
2021/12/24 06:03:55;;;;;;;;;;;8.40;82.50;;;;;;5016144;28;19909;-67
2021/12/24 06:06:21;;;;;;;;;;;8.50;82.30;;;;;;5016136;28;19964;-66
2021/12/24 06:08:46;;;;;;;;;;;8.50;81.60;;;;;;5016302;28;19960;-63
2021/12/24 06:11:12;;;;;;;;;;;8.50;82.00;;;;;;5015719;28;19913;-71
2021/12/24 06:13:37;;;;;;;;;;;8.40;82.20;;;;;;5015470;28;19917;-67
2021/12/24 06:16:05;;;;;;;;;;;8.40;82.30;;;;;;5017278;28;19910;-61
2021/12/24 06:18:31;;;;;;;;;;;8.50;81.80;;;;;;5017615;28;19921;-60
2021/12/24 06:21:00;;;;;;;;;;;8.50;81.90;;;;;;5015814;28;20000;-64
2021/12/24 06:23:27;;;;;;;;;;;8.60;81.70;;;;;;5015583;28;20366;-56
2021/12/24 06:25:54;;;;;;;;;;;8.50;81.70;;;;;;5015065;28;19926;-58
2021/12/24 06:28:19;;;;;;;;;;;8.50;82.00;;;;;;5015408;28;19967;-58
2021/12/24 06:30:45;;;;;;;;;;;8.40;82.90;;;;;;5015110;28;20360;-58
2021/12/24 06:33:11;;;;;;;;;;;8.50;82.00;;;;;;5015106;28;19909;-56
2021/12/24 06:35:37;;;;;;;;;;;8.50;81.90;;;;;;5015249;28;19909;-58
2021/12/24 06:38:03;;;;;;;;;;;8.50;82.00;;;;;;5014856;28;20297;-62
2021/12/24 06:40:28;;;;;;;;;;;8.50;82.00;;;;;;5015072;28;20009;-56
2021/12/24 06:42:54;;;;;;;;;;;8.50;82.40;;;;;;5014406;28;19913;-56
2021/12/24 06:45:23;;;;;;;;;;;8.40;82.30;;;;;;5014756;28;19910;-56
2021/12/24 06:47:52;;;;;;;;;;;8.50;81.80;;;;;;5015103;28;20000;-57
2021/12/24 06:50:18;;;;;;;;;;;8.50;81.60;;;;;;5014667;28;19913;-57
2021/12/24 06:52:44;;;;;;;;;;;8.60;81.40;;;;;;5014996;28;19910;-58
2021/12/24 06:55:10;;;;;;;;;;;8.60;81.00;;;;;;5014941;28;19956;-58
2021/12/24 06:57:37;;;;;;;;;;;8.60;80.90;;;;;;5014432;28;19914;-56
2021/12/24 07:00:03;;;;;;;;;;;8.60;81.00;;;;;;5014610;28;19914;-57
2021/12/24 07:02:29;;;;;;;;;;;8.60;81.20;;;;;;5014537;28;19910;-57
2021/12/24 07:04:54;;;;;;;;;;;8.50;81.20;;;;;;5014565;28;20385;-57
2021/12/24 07:07:20;;;;;;;;;;;8.50;81.70;;;;;;5014386;28;20292;-57
2021/12/24 07:09:45;;;;;;;;;;;8.40;82.00;;;;;;5014353;28;19909;-58
2021/12/24 07:12:12;;;;;;;;;;;8.40;82.60;;;;;;5014376;28;19956;-64
2021/12/24 07:14:38;;;;;;;;;;;8.60;81.90;;;;;;5014153;28;20373;-61
2021/12/24 07:17:04;;;;;;;;;;;8.80;81.30;;;;;;5014203;28;19910;-62
2021/12/24 07:19:30;;;;;;;;;;;9.00;80.40;;;;;;5014203;28;19913;-61
2021/12/24 07:21:55;;;;;;;;;;;9.10;79.00;;;;;;4996399;28;19916;-59
2021/12/24 07:24:21;;;;;;;;;;;9.20;78.70;;;;;;4996207;28;20376;-62
2021/12/24 07:26:47;;;;;;;;;;;9.30;78.00;;;;;;5013440;28;20381;-60
2021/12/24 07:29:12;;;;;;;;;;;9.20;78.30;;;;;;5013890;28;20325;-63
2021/12/24 07:31:38;;;;;;;;;;;9.20;78.50;;;;;;5013923;28;19963;-61
2021/12/24 07:34:03;;;;;;;;;;;9.30;78.50;;;;;;5013578;28;19914;-60
2021/12/24 07:36:29;;;;;;;;;;;9.20;78.40;;;;;;5013908;28;20047;-63
2021/12/24 07:38:54;;;;;;;;;;;9.10;78.70;;;;;;5013917;28;19963;-61
2021/12/24 07:41:20;;;;;;;;;;;9.00;78.70;;;;;;5013731;28;19917;-60
2021/12/24 07:43:46;;;;;;;;;;;8.90;79.70;;;;;;5013718;28;19913;-60
2021/12/24 07:46:12;;;;;;;;;;;8.80;80.20;;;;;;5013172;28;20003;-62
2021/12/24 07:48:45;;;;;;;;;;;8.70;80.50;;;;;;5013955;28;19909;-63
2021/12/24 07:54:00;;;;;;;;;;;8.70;81.50;;;;;;5013757;28;19967;-63
2021/12/24 07:56:26;;;;;;;;;;;8.60;81.60;;;;;;5013740;28;20320;-63
2021/12/24 07:58:52;;;;;;;;;;;8.60;82.30;;;;;;5013619;28;19917;-63
2021/12/24 08:01:17;;;;;;;;;;;8.60;82.80;;;;;;5013293;28;20417;-59
2021/12/24 08:03:43;;;;;;;;;;;8.50;83.20;;;;;;5012822;28;20012;-62
2021/12/24 08:06:08;;;;;;;;;;;8.50;83.40;;;;;;5012906;28;20401;-59
2021/12/24 08:08:34;;;;;;;;;;;8.50;83.50;;;;;;5012688;28;19917;-62
2021/12/24 08:10:59;;;;;;;;;;;8.50;83.40;;;;;;5012758;28;19910;-59
2021/12/24 08:13:25;;;;;;;;;;;8.40;83.60;;;;;;5012849;28;19963;-61
2021/12/24 08:15:54;;;;;;;;;;;8.40;83.90;;;;;;5013069;28;20426;-60
2021/12/24 08:18:19;;;;;;;;;;;8.40;84.00;;;;;;5013338;28;19921;-61
2021/12/24 08:20:45;;;;;;;;;;;8.40;84.20;;;;;;5013207;28;19909;-62
2021/12/24 08:23:10;;;;;;;;;;;8.40;84.30;;;;;;5013226;28;19910;-58
2021/12/24 08:25:36;;;;;;;;;;;8.40;84.30;;;;;;5013402;28;19972;-58
2021/12/24 08:28:02;;;;;;;;;;;8.50;84.00;;;;;;5013068;28;19910;-59
2021/12/24 08:30:27;;;;;;;;;;;8.50;84.50;;;;;;5012678;28;19913;-60
2021/12/24 08:32:55;;;;;;;;;;;8.30;85.20;;;;;;5012674;28;19910;-57
2021/12/24 08:35:21;;;;;;;;;;;8.40;85.30;;;;;;5012531;28;19917;-58
2021/12/24 08:37:47;;;;;;;;;;;8.40;85.00;;;;;;5012435;28;19924;-59
2021/12/24 08:40:13;;;;;;;;;;;8.50;84.70;;;;;;5012547;28;20020;-59
2021/12/24 08:42:39;;;;;;;;;;;8.40;84.90;;;;;;5012548;28;19917;-58
2021/12/24 08:45:05;;;;;;;;;;;8.50;84.90;;;;;;5012442;28;19957;-58
2021/12/24 08:47:30;;;;;;;;;;;8.40;85.00;;;;;;5012224;28;19929;-58
2021/12/24 08:49:56;;;;;;;;;;;8.40;84.80;;;;;;5012413;28;19909;-58
2021/12/24 08:52:21;;;;;;;;;;;8.40;84.80;;;;;;5012288;28;20000;-58
2021/12/24 08:54:47;;;;;;;;;;;8.40;84.70;;;;;;5012847;28;20012;-59
2021/12/24 08:57:12;;;;;;;;;;;8.50;84.50;;;;;;5012329;28;19929;-58
2021/12/24 08:59:38;;;;;;;;;;;8.50;84.30;;;;;;5012335;28;19914;-60
2021/12/24 09:02:04;;;;;;;;;;;8.60;83.80;;;;;;5012864;28;19910;-59
2021/12/24 09:04:29;;;;;;;;;;;8.60;83.20;;;;;;5012888;28;19992;-57
2021/12/24 09:06:55;;;;;;;;;;;8.60;83.20;;;;;;5016291;28;19913;-59
2021/12/24 09:09:20;;;;;;;;;;;8.70;83.00;;;;;;5016651;28;19921;-58
2021/12/24 09:11:47;;;;;;;;;;;8.60;83.10;;;;;;5016401;28;20325;-58
2021/12/24 09:14:17;;;;;;;;;;;8.60;83.10;;;;;;5016589;28;19932;-60
2021/12/24 09:16:43;;;;;;;;;;;8.60;83.10;;;;;;5016193;28;19952;-60
2021/12/24 09:19:12;;;;;;;;;;;8.60;83.50;;;;;;5016376;28;20011;-57
2021/12/24 09:21:38;;;;;;;;;;;8.60;83.40;;;;;;5016198;28;19920;-58
2021/12/24 09:24:08;;;;;;;;;;;8.60;83.70;;;;;;5016110;28;19909;-58
2021/12/24 09:26:36;;;;;;;;;;;8.60;83.50;;;;;;5015824;28;20405;-64
2021/12/24 09:29:03;;;;;;;;;;;8.70;83.00;;;;;;5016203;28;20336;-59
2021/12/24 09:31:29;;;;;;;;;;;8.80;82.30;;;;;;5016106;28;19914;-60
2021/12/24 09:33:55;;;;;;;;;;;8.90;81.80;;;;;;5016139;28;19964;-59
2021/12/24 09:36:27;;;;;;;;;;;8.90;81.40;;;;;;5015984;28;19983;-67
2021/12/24 09:38:54;;;;;;;;;;;8.80;82.20;;;;;;5016101;28;20277;-63
2021/12/24 09:41:20;;;;;;;;;;;8.90;82.20;;;;;;5015610;28;19917;-65
2021/12/24 09:43:46;;;;;;;;;;;8.80;82.70;;;;;;5016102;28;19909;-64
2021/12/24 09:46:12;;;;;;;;;;;8.70;82.90;;;;;;5015949;28;20389;-63
2021/12/24 09:48:38;;;;;;;;;;;8.80;83.30;;;;;;5015750;28;20246;-63
2021/12/24 09:51:04;;;;;;;;;;;8.70;84.50;;;;;;5015694;28;19910;-63
2021/12/24 09:53:29;;;;;;;;;;;8.70;84.10;;;;;;5015865;28;19928;-64
2021/12/24 09:55:55;;;;;;;;;;;8.70;84.30;;;;;;5016002;28;19952;-64
2021/12/24 09:58:21;;;;;;;;;;;8.70;84.80;;;;;;5015603;28;19922;-59
2021/12/24 10:00:46;;;;;;;;;;;8.60;85.10;;;;;;5015137;28;19937;-67
2021/12/24 10:03:26;;;;;;;;;;;8.60;85.70;;;;;;5014784;28;20415;-62
2021/12/24 10:05:54;;;;;;;;;;;8.60;86.60;;;;;;5014312;28;19914;-62
2021/12/24 10:08:20;;;;;;;;;;;8.60;85.70;;;;;;5014401;28;19917;-57
2021/12/24 10:10:48;;;;;;;;;;;8.60;85.70;;;;;;5014397;28;19932;-62
2021/12/24 10:13:29;;;;;;;;;;;8.60;85.70;;;;;;5014290;28;20388;-59
2021/12/24 10:15:59;;;;;;;;;;;8.60;85.90;;;;;;5013653;28;19913;-65
2021/12/24 10:18:26;;;;;;;;;;;8.60;85.80;;;;;;5013920;28;19988;-63
2021/12/24 10:21:02;;;;;;;;;;;8.60;85.90;;;;;;5014944;28;19985;-68
2021/12/24 10:23:38;;;;;;;;;;;8.60;86.30;;;;;;5014984;28;19921;-69
2021/12/24 10:26:11;;;;;;;;;;;8.50;86.70;;;;;;5014461;28;20374;-65
2021/12/24 10:28:37;;;;;;;;;;;8.60;86.70;;;;;;5015293;28;20254;-61
2021/12/24 10:31:02;;;;;;;;;;;8.70;86.10;;;;;;5014460;28;20000;-59
2021/12/24 10:33:28;;;;;;;;;;;8.70;86.20;;;;;;5013254;28;19909;-59
2021/12/24 10:36:00;;;;;;;;;;;8.70;86.30;;;;;;5014406;28;19916;-61
2021/12/24 10:38:25;;;;;;;;;;;8.70;86.60;;;;;;5013471;28;20476;-62
2021/12/24 10:40:55;;;;;;;;;;;8.60;86.90;;;;;;5014002;28;19988;-66
2021/12/24 10:43:28;;;;;;;;;;;8.80;87.30;;;;;;5014827;28;19916;-65
2021/12/24 10:46:14;;;;;;;;;;;8.70;86.60;;;;;;5014009;28;20140;-66
2021/12/24 10:48:48;;;;;;;;;;;8.40;87.40;;;;;;5014020;28;19924;-59
2021/12/24 10:51:31;;;;;;;;;;;8.20;89.20;;;;;;5013912;28;19910;-59
2021/12/24 10:54:04;;;;;;;;;;;8.10;89.80;;;;;;5014104;28;19945;-61
2021/12/24 10:56:29;;;;;;;;;;;8.10;90.00;;;;;;5013813;28;20010;-63
2021/12/24 10:58:55;;;;;;;;;;;8.10;90.10;;;;;;5013963;28;19953;-65
2021/12/24 11:01:20;;;;;;;;;;;8.20;89.60;;;;;;5013566;28;19909;-60
2021/12/24 11:03:46;;;;;;;;;;;8.30;89.20;;;;;;5013559;28;19909;-58
2021/12/24 11:06:15;;;;;;;;;;;8.30;88.70;;;;;;5012876;28;19920;-59
2021/12/24 11:08:41;;;;;;;;;;;8.40;88.20;;;;;;5013146;28;19949;-64
2021/12/24 11:11:10;;;;;;;;;;;8.50;88.30;;;;;;5013285;28;19909;-63
2021/12/24 11:13:40;;;;;;;;;;;8.50;87.90;;;;;;5013835;28;19993;-66
2021/12/24 11:16:09;;;;;;;;;;;8.40;88.40;;;;;;5013480;28;19909;-61
2021/12/24 11:18:38;;;;;;;;;;;8.40;88.60;;;;;;5013825;28;19976;-60
2021/12/24 11:21:05;;;;;;;;;;;8.40;88.30;;;;;;5013475;28;19909;-61
2021/12/24 11:23:32;;;;;;;;;;;8.50;88.10;;;;;;5011557;28;19909;-63
2021/12/24 11:26:03;;;;;;;;;;;8.60;87.70;;;;;;5013839;28;19949;-62
2021/12/24 11:28:29;;;;;;;;;;;8.50;88.00;;;;;;5013724;28;19914;-60
2021/12/24 11:30:56;;;;;;;;;;;8.60;88.00;;;;;;5013823;28;20320;-57
2021/12/24 11:33:26;;;;;;;;;;;8.60;87.90;;;;;;5010972;28;19924;-59
2021/12/24 11:35:53;;;;;;;;;;;8.60;87.60;;;;;;5011677;28;19953;-57
2021/12/24 11:38:20;;;;;;;;;;;8.60;87.60;;;;;;5012293;28;20361;-59
2021/12/24 11:40:46;;;;;;;;;;;8.60;87.60;;;;;;5010301;28;19921;-58
2021/12/24 11:43:12;;;;;;;;;;;8.60;87.70;;;;;;5012461;28;19910;-58
2021/12/24 11:45:39;;;;;;;;;;;8.60;87.30;;;;;;5012895;28;19910;-56
2021/12/24 11:48:06;;;;;;;;;;;8.80;87.00;;;;;;5013087;28;20306;-59
2021/12/24 11:50:32;;;;;;;;;;;8.80;86.30;;;;;;5013010;28;20357;-61
2021/12/24 11:52:59;;;;;;;;;;;8.80;86.10;;;;;;5013022;28;20061;-60
2021/12/24 11:55:27;;;;;;;;;;;8.70;86.50;;;;;;5012918;28;19921;-60
2021/12/24 11:57:59;;;;;;;;;;;8.70;87.10;;;;;;5013247;28;19918;-62
2021/12/24 12:00:33;;;;;;;;;;;8.60;87.70;;;;;;5013130;28;20036;-57
2021/12/24 12:02:59;;;;;;;;;;;8.50;88.50;;;;;;5012922;28;19987;-62
2021/12/24 12:05:24;;;;;;;;;;;8.50;88.40;;;;;;5012613;28;20422;-59
2021/12/24 12:07:51;;;;;;;;;;;8.50;88.70;;;;;;5012311;28;19914;-57
2021/12/24 12:10:35;;;;;;;;;;;8.50;88.50;;;;;;5012148;28;20269;-59
2021/12/24 12:13:01;;;;;;;;;;;8.60;88.40;;;;;;5012468;28;19920;-57
2021/12/24 12:15:28;;;;;;;;;;;8.60;88.00;;;;;;5011130;28;20043;-56
2021/12/24 12:18:04;;;;;;;;;;;8.60;88.10;;;;;;5010120;28;20280;-62
2021/12/24 12:20:56;;;;;;;;;;;8.60;87.80;;;;;;5012661;28;20400;-58
2021/12/24 12:23:45;;;;;;;;;;;8.70;87.30;;;;;;5013211;28;19913;-56
2021/12/24 12:26:29;;;;;;;;;;;8.70;87.50;;;;;;5013085;28;19921;-60
2021/12/24 12:29:13;;;;;;;;;;;8.70;87.30;;;;;;5013113;28;19914;-60
2021/12/24 12:31:39;;;;;;;;;;;8.70;87.30;;;;;;5012591;28;20325;-59
2021/12/24 12:34:24;;;;;;;;;;;8.70;87.00;;;;;;5013080;28;19910;-60
2021/12/24 12:36:50;;;;;;;;;;;8.80;87.10;;;;;;5012960;28;19913;-60
2021/12/24 12:39:28;;;;;;;;;;;8.70;87.10;;;;;;5013029;28;19925;-60
2021/12/24 12:41:54;;;;;;;;;;;8.60;87.40;;;;;;4999033;28;19910;-61
2021/12/24 12:44:19;;;;;;;;;;;8.80;87.20;;;;;;5016946;28;19967;-60
2021/12/24 12:46:47;;;;;;;;;;;8.80;87.00;;;;;;5016996;28;20000;-62
2021/12/24 12:49:20;;;;;;;;;;;8.70;87.10;;;;;;5016993;28;19917;-58
2021/12/24 12:51:53;;;;;;;;;;;8.70;87.40;;;;;;4999181;28;19910;-59
2021/12/24 12:54:34;;;;;;;;;;;8.80;86.90;;;;;;5016770;28;19910;-63
2021/12/24 12:57:12;;;;;;;;;;;8.70;87.60;;;;;;4999265;28;19916;-66
2021/12/24 12:59:38;;;;;;;;;;;8.70;87.90;;;;;;5016538;28;19917;-65
2021/12/24 13:02:04;;;;;;;;;;;8.70;87.40;;;;;;5016831;28;19910;-61
2021/12/24 13:04:30;;;;;;;;;;;8.60;87.50;;;;;;5016723;28;19913;-66
2021/12/24 13:06:56;;;;;;;;;;;8.60;87.70;;;;;;5016491;28;20277;-63
2021/12/24 13:09:28;;;;;;;;;;;8.60;87.90;;;;;;5016582;28;19909;-63
2021/12/24 13:11:54;;;;;;;;;;;8.70;87.80;;;;;;5016442;28;19917;-61
2021/12/24 13:14:21;;;;;;;;;;;8.70;87.60;;;;;;5016779;28;20387;-58
2021/12/24 13:17:05;;;;;;;;;;;8.70;87.00;;;;;;5016653;28;19916;-63
2021/12/24 13:19:58;;;;;;;;;;;8.70;86.90;;;;;;5014112;28;19965;-59
2021/12/24 13:22:30;;;;;;;;;;;8.80;87.00;;;;;;5017377;28;20012;-58
2021/12/24 13:24:59;;;;;;;;;;;8.70;86.80;;;;;;5018088;28;20369;-58
2021/12/24 13:27:33;;;;;;;;;;;8.70;87.10;;;;;;5015335;28;20369;-59
2021/12/24 13:30:05;;;;;;;;;;;8.70;87.30;;;;;;5015880;28;19910;-58
2021/12/24 13:32:31;;;;;;;;;;;8.60;87.50;;;;;;5012809;28;20357;-60
2021/12/24 13:34:56;;;;;;;;;;;8.50;87.90;;;;;;5018140;28;19964;-60
2021/12/24 13:37:22;;;;;;;;;;;8.60;87.50;;;;;;5015245;28;19909;-64
2021/12/24 13:39:49;;;;;;;;;;;8.70;87.30;;;;;;5015100;28;19921;-63
2021/12/24 13:42:14;;;;;;;;;;;8.70;87.40;;;;;;5015249;28;19919;-60
2021/12/24 13:44:40;;;;;;;;;;;8.80;87.10;;;;;;5015765;28;20000;-57
2021/12/24 13:55:25;;;;;;;;;;;8.90;86.80;;;;;;5012621;28;19916;-60
2021/12/24 13:57:55;;;;;;;;;;;8.80;86.70;;;;;;5015040;28;20020;-65
2021/12/24 14:00:21;;;;;;;;;;;8.70;86.90;;;;;;5015156;28;19980;-64
2021/12/24 14:02:54;;;;;;;;;;;8.70;86.90;;;;;;4997696;28;20017;-64
2021/12/24 14:05:20;;;;;;;;;;;8.70;86.90;;;;;;5015820;28;19913;-64
2021/12/24 14:08:01;;;;;;;;;;;8.70;86.80;;;;;;5015647;28;19915;-65
2021/12/24 14:10:27;;;;;;;;;;;8.70;86.90;;;;;;5015216;28;20421;-59
2021/12/24 14:12:54;;;;;;;;;;;8.70;87.10;;;;;;5014911;28;19941;-61
2021/12/24 14:15:25;;;;;;;;;;;8.80;87.00;;;;;;5015282;28;19913;-64
2021/12/24 14:18:43;;;;;;;;;;;8.80;86.50;;;;;;4997732;28;20262;-60
2021/12/24 14:21:44;;;;;;;;;;;8.70;86.80;;;;;;5009540;28;19960;-61
2021/12/24 14:23:34;;;;;;;;;;;8.70;87.40;;;;;;5015029;28;20389;-66
2021/12/24 14:26:00;;;;;;;;;;;8.70;87.60;;;;;;5015089;28;19925;-65
2021/12/24 14:28:26;;;;;;;;;;;8.70;87.90;;;;;;5013619;28;19913;-61
2021/12/24 14:31:01;;;;;;;;;;;8.70;87.90;;;;;;5014422;28;19992;-59
2021/12/24 14:33:27;;;;;;;;;;;8.60;87.90;;;;;;5014464;28;19913;-61
2021/12/24 14:35:53;;;;;;;;;;;8.60;87.90;;;;;;5014592;28;19920;-58
2021/12/24 14:38:22;;;;;;;;;;;8.70;87.90;;;;;;5014234;28;19921;-59
2021/12/24 14:40:54;;;;;;;;;;;8.70;87.80;;;;;;5014583;28;20324;-66
2021/12/24 14:43:20;;;;;;;;;;;8.70;87.60;;;;;;5014190;28;19918;-61
2021/12/24 14:45:46;;;;;;;;;;;8.60;87.40;;;;;;5013501;28;20055;-66
2021/12/24 14:48:16;;;;;;;;;;;8.60;87.50;;;;;;5013508;28;19913;-63
2021/12/24 14:50:41;;;;;;;;;;;8.60;87.80;;;;;;5010867;28;19914;-62
2021/12/24 14:53:11;;;;;;;;;;;8.70;87.90;;;;;;5011734;28;19920;-62
2021/12/24 14:55:39;;;;;;;;;;;8.70;87.90;;;;;;5013595;28;19920;-63
2021/12/24 14:58:05;;;;;;;;;;;8.70;87.80;;;;;;5014343;28;20045;-67
2021/12/24 15:00:41;;;;;;;;;;;8.80;87.70;;;;;;5014308;28;19961;-62
2021/12/24 15:03:14;;;;;;;;;;;8.90;87.30;;;;;;5013854;28;19931;-64
2021/12/24 15:05:42;;;;;;;;;;;8.80;87.10;;;;;;5011534;28;20400;-70
2021/12/24 15:08:12;;;;;;;;;;;8.80;87.20;;;;;;5012396;28;19945;-65
2021/12/24 15:10:38;;;;;;;;;;;8.70;87.10;;;;;;5013730;28;19992;-62
2021/12/24 15:13:13;;;;;;;;;;;8.70;87.50;;;;;;5010394;28;19922;-63
2021/12/24 15:15:39;;;;;;;;;;;8.70;87.50;;;;;;5012939;28;20381;-64
2021/12/24 15:18:04;;;;;;;;;;;8.70;87.20;;;;;;5013606;28;20011;-64
2021/12/24 15:20:30;;;;;;;;;;;8.70;86.90;;;;;;5013327;28;20270;-61
2021/12/24 15:22:56;;;;;;;;;;;8.70;86.90;;;;;;5013690;28;20259;-63
2021/12/24 15:25:22;;;;;;;;;;;8.70;87.10;;;;;;5013754;28;20024;-62
2021/12/24 15:27:49;;;;;;;;;;;8.70;87.60;;;;;;5011838;28;19918;-66
2021/12/24 15:30:14;;;;;;;;;;;8.70;87.60;;;;;;5005438;28;19960;-61
2021/12/24 15:32:40;;;;;;;;;;;8.60;87.70;;;;;;5013822;28;19975;-59
2021/12/24 15:35:07;;;;;;;;;;;8.60;87.90;;;;;;5013394;28;20381;-63
2021/12/24 15:37:33;;;;;;;;;;;8.60;88.10;;;;;;5012598;28;20332;-61
2021/12/24 15:39:58;;;;;;;;;;;8.60;88.30;;;;;;5012775;28;19918;-67
2021/12/24 15:42:27;;;;;;;;;;;8.70;87.90;;;;;;5012760;28;19910;-60
2021/12/24 15:44:53;;;;;;;;;;;8.60;87.90;;;;;;5012063;28;20009;-59
2021/12/24 15:47:18;;;;;;;;;;;8.70;87.40;;;;;;5012950;28;20425;-60
2021/12/24 15:49:44;;;;;;;;;;;8.70;87.10;;;;;;4996449;28;19940;-60
2021/12/24 15:52:10;;;;;;;;;;;8.60;87.50;;;;;;5012928;28;20284;-59
2021/12/24 15:54:35;;;;;;;;;;;8.60;87.70;;;;;;5012720;28;19949;-57
2021/12/24 15:57:02;;;;;;;;;;;8.60;87.90;;;;;;5013064;28;19909;-63
2021/12/24 15:59:31;;;;;;;;;;;8.60;87.80;;;;;;5012628;28;19929;-66
2021/12/24 16:02:00;;;;;;;;;;;8.60;87.90;;;;;;5012590;28;19967;-61
2021/12/24 16:04:25;;;;;;;;;;;8.60;87.70;;;;;;5011247;28;19910;-63
2021/12/24 16:06:51;;;;;;;;;;;8.60;87.80;;;;;;5009999;28;19920;-64
2021/12/24 16:09:20;;;;;;;;;;;8.60;88.40;;;;;;5012487;28;19964;-66
2021/12/24 16:11:46;;;;;;;;;;;8.70;87.60;;;;;;5010571;28;20427;-64
2021/12/24 16:14:12;;;;;;;;;;;8.60;87.50;;;;;;5012166;28;20007;-61
2021/12/24 16:16:40;;;;;;;;;;;8.60;87.50;;;;;;5012464;28;19977;-67
2021/12/24 16:19:06;;;;;;;;;;;8.60;87.80;;;;;;5010125;28;19928;-64
2021/12/24 16:21:32;;;;;;;;;;;8.60;87.90;;;;;;5012399;28;19914;-68
2021/12/24 16:23:57;;;;;;;;;;;8.50;88.20;;;;;;5012803;28;19913;-71